sensor_id;sensor_type;location;lat;lon;timestamp;pressure;altitude;pressure_sealevel;temperature;humidity
46448;BME280;32145;50.390;30.778;2023-05-19T00:01:12;100467.88;;;18.39;45.87
46448;BME280;32145;50.390;30.778;2023-05-19T00:04:09;100471.97;;;18.36;46.00
46448;BME280;32145;50.390;30.778;2023-05-19T00:07:06;100471.97;;;18.36;46.13
46448;BME280;32145;50.390;30.778;2023-05-19T00:10:06;100474.72;;;18.36;46.23
46448;BME280;32145;50.390;30.778;2023-05-19T00:13:01;100470.59;;;18.34;46.49
46448;BME280;32145;50.390;30.778;2023-05-19T00:15:57;100469.78;;;18.33;46.57
46448;BME280;32145;50.390;30.778;2023-05-19T00:18:52;100478.28;;;18.32;46.62
46448;BME280;32145;50.390;30.778;2023-05-19T00:21:48;100473.59;;;18.32;46.74
46448;BME280;32145;50.390;30.778;2023-05-19T00:24:45;100478.28;;;18.32;46.89
46448;BME280;32145;50.390;30.778;2023-05-19T00:27:41;100484.59;;;18.32;46.95
46448;BME280;32145;50.390;30.778;2023-05-19T00:30:37;100468.13;;;18.32;47.23
46448;BME280;32145;50.390;30.778;2023-05-19T00:33:35;100482.94;;;18.31;47.33
46448;BME280;32145;50.390;30.778;2023-05-19T00:36:29;100477.47;;;18.31;47.33
46448;BME280;32145;50.390;30.778;2023-05-19T00:39:24;100489.81;;;18.28;47.71
46448;BME280;32145;50.390;30.778;2023-05-19T00:42:18;100485.69;;;18.26;47.91
46448;BME280;32145;50.390;30.778;2023-05-19T00:45:13;100488.97;;;18.28;47.86
46448;BME280;32145;50.390;30.778;2023-05-19T00:48:07;100483.47;;;18.28;47.95
46448;BME280;32145;50.390;30.778;2023-05-19T00:51:04;100493.66;;;18.27;48.17
46448;BME280;32145;50.390;30.778;2023-05-19T00:53:58;100490.34;;;18.25;48.10
46448;BME280;32145;50.390;30.778;2023-05-19T00:56:53;100488.44;;;18.26;48.25
46448;BME280;32145;50.390;30.778;2023-05-19T00:59:50;100493.34;;;18.24;48.34
46448;BME280;32145;50.390;30.778;2023-05-19T01:02:46;100487.59;;;18.20;48.49
46448;BME280;32145;50.390;30.778;2023-05-19T01:05:42;100487.03;;;18.18;48.86
46448;BME280;32145;50.390;30.778;2023-05-19T01:08:40;100491.13;;;18.15;48.99
46448;BME280;32145;50.390;30.778;2023-05-19T01:11:37;100498.00;;;18.13;49.09
46448;BME280;32145;50.390;30.778;2023-05-19T01:14:33;100502.09;;;18.10;49.22
46448;BME280;32145;50.390;30.778;2023-05-19T01:17:37;100504.84;;;18.10;49.79
46448;BME280;32145;50.390;30.778;2023-05-19T01:20:39;100503.69;;;18.06;49.83
46448;BME280;32145;50.390;30.778;2023-05-19T01:23:45;100505.59;;;18.06;50.05
46448;BME280;32145;50.390;30.778;2023-05-19T01:27:08;100509.72;;;18.03;50.28
46448;BME280;32145;50.390;30.778;2023-05-19T01:30:26;100517.41;;;18.01;50.60
46448;BME280;32145;50.390;30.778;2023-05-19T01:33:24;100508.59;;;17.94;50.58
46448;BME280;32145;50.390;30.778;2023-05-19T01:36:22;100515.16;;;17.93;51.00
46448;BME280;32145;50.390;30.778;2023-05-19T01:39:18;100514.88;;;17.89;51.08
46448;BME280;32145;50.390;30.778;2023-05-19T01:42:16;100512.97;;;17.89;51.23
46448;BME280;32145;50.390;30.778;2023-05-19T01:45:11;100516.78;;;17.88;51.28
46448;BME280;32145;50.390;30.778;2023-05-19T01:48:07;100523.38;;;17.87;51.48
46448;BME280;32145;50.390;30.778;2023-05-19T01:51:01;100524.47;;;17.86;51.64
46448;BME280;32145;50.390;30.778;2023-05-19T01:53:56;100528.31;;;17.85;51.82
46448;BME280;32145;50.390;30.778;2023-05-19T01:56:56;100531.84;;;17.86;52.11
46448;BME280;32145;50.390;30.778;2023-05-19T01:59:58;100533.22;;;17.88;52.19
46448;BME280;32145;50.390;30.778;2023-05-19T02:03:08;100525.00;;;17.88;52.56
46448;BME280;32145;50.390;30.778;2023-05-19T02:06:17;100530.22;;;17.90;52.71
46448;BME280;32145;50.390;30.778;2023-05-19T02:09:22;100538.47;;;17.90;52.77
46448;BME280;32145;50.390;30.778;2023-05-19T02:12:21;100535.97;;;17.88;52.91
46448;BME280;32145;50.390;30.778;2023-05-19T02:15:20;100544.78;;;17.90;53.45
46448;BME280;32145;50.390;30.778;2023-05-19T02:18:15;100546.41;;;17.91;53.56
46448;BME280;32145;50.390;30.778;2023-05-19T02:21:11;100541.78;;;17.92;53.76
46448;BME280;32145;50.390;30.778;2023-05-19T02:24:06;100538.19;;;17.91;53.79
46448;BME280;32145;50.390;30.778;2023-05-19T02:27:00;100541.78;;;17.92;53.77
46448;BME280;32145;50.390;30.778;2023-05-19T02:29:55;100543.41;;;17.93;53.90
46448;BME280;32145;50.390;30.778;2023-05-19T02:32:51;100548.63;;;17.95;54.07
46448;BME280;32145;50.390;30.778;2023-05-19T02:35:47;100550.81;;;17.93;54.53
46448;BME280;32145;50.390;30.778;2023-05-19T02:38:45;100558.50;;;17.90;55.15
46448;BME280;32145;50.390;30.778;2023-05-19T02:41:41;100559.00;;;17.87;55.30
46448;BME280;32145;50.390;30.778;2023-05-19T02:44:38;100557.06;;;17.83;55.57
46448;BME280;32145;50.390;30.778;2023-05-19T02:47:34;100557.34;;;17.81;55.73
46448;BME280;32145;50.390;30.778;2023-05-19T02:50:30;100556.53;;;17.81;55.95
46448;BME280;32145;50.390;30.778;2023-05-19T02:53:27;100557.63;;;17.80;56.23
46448;BME280;32145;50.390;30.778;2023-05-19T02:56:24;100562.25;;;17.79;56.38
46448;BME280;32145;50.390;30.778;2023-05-19T02:59:20;100568.84;;;17.78;56.40
46448;BME280;32145;50.390;30.778;2023-05-19T03:02:17;100568.28;;;17.76;56.50
46448;BME280;32145;50.390;30.778;2023-05-19T03:05:11;100566.38;;;17.76;56.56
46448;BME280;32145;50.390;30.778;2023-05-19T03:08:06;100565.53;;;17.76;56.67
46448;BME280;32145;50.390;30.778;2023-05-19T03:11:00;100574.84;;;17.75;56.74
46448;BME280;32145;50.390;30.778;2023-05-19T03:13:57;100574.84;;;17.75;56.91
46448;BME280;32145;50.390;30.778;2023-05-19T03:16:53;100577.59;;;17.75;56.96
46448;BME280;32145;50.390;30.778;2023-05-19T03:19:49;100575.69;;;17.75;57.11
46448;BME280;32145;50.390;30.778;2023-05-19T03:22:46;100576.25;;;17.77;57.20
46448;BME280;32145;50.390;30.778;2023-05-19T03:25:40;100577.06;;;17.78;57.21
46448;BME280;32145;50.390;30.778;2023-05-19T03:28:35;100586.41;;;17.82;57.26
46448;BME280;32145;50.390;30.778;2023-05-19T03:31:30;100584.22;;;17.84;57.15
46448;BME280;32145;50.390;30.778;2023-05-19T03:34:25;100584.81;;;17.86;57.18
46448;BME280;32145;50.390;30.778;2023-05-19T03:37:19;100577.69;;;17.90;56.88
46448;BME280;32145;50.390;30.778;2023-05-19T03:40:13;100574.41;;;17.94;56.84
46448;BME280;32145;50.390;30.778;2023-05-19T03:43:08;100574.97;;;17.96;56.80
46448;BME280;32145;50.390;30.778;2023-05-19T03:46:04;100578.28;;;17.98;56.77
46448;BME280;32145;50.390;30.778;2023-05-19T03:49:02;100592.00;;;17.98;56.68
46448;BME280;32145;50.390;30.778;2023-05-19T03:51:58;100587.59;;;17.97;56.75
46448;BME280;32145;50.390;30.778;2023-05-19T03:54:54;100594.75;;;17.98;56.75
46448;BME280;32145;50.390;30.778;2023-05-19T03:57:50;100594.75;;;17.98;56.69
46448;BME280;32145;50.390;30.778;2023-05-19T04:00:47;100596.66;;;17.97;56.71
46448;BME280;32145;50.390;30.778;2023-05-19T04:03:41;100597.47;;;17.98;56.88
46448;BME280;32145;50.390;30.778;2023-05-19T04:06:37;100601.88;;;17.99;56.59
46448;BME280;32145;50.390;30.778;2023-05-19T04:09:31;100594.47;;;17.99;56.65
46448;BME280;32145;50.390;30.778;2023-05-19T04:12:26;100592.53;;;18.00;56.57
46448;BME280;32145;50.390;30.778;2023-05-19T04:15:20;100594.22;;;18.01;56.61
46448;BME280;32145;50.390;30.778;2023-05-19T04:18:14;100595.03;;;18.01;56.57
46448;BME280;32145;50.390;30.778;2023-05-19T04:21:09;100589.53;;;18.01;56.64
46448;BME280;32145;50.390;30.778;2023-05-19T04:24:05;100599.16;;;18.04;56.72
46448;BME280;32145;50.390;30.778;2023-05-19T04:27:00;100602.16;;;18.02;56.63
46448;BME280;32145;50.390;30.778;2023-05-19T04:29:54;100605.19;;;18.01;56.70
46448;BME280;32145;50.390;30.778;2023-05-19T04:32:49;100609.00;;;18.00;56.64
46448;BME280;32145;50.390;30.778;2023-05-19T04:35:43;100613.13;;;18.02;56.49
46448;BME280;32145;50.390;30.778;2023-05-19T04:38:38;100609.84;;;18.00;56.74
46448;BME280;32145;50.390;30.778;2023-05-19T04:41:34;100616.16;;;18.01;56.80
46448;BME280;32145;50.390;30.778;2023-05-19T04:44:28;100613.97;;;18.03;56.69
46448;BME280;32145;50.390;30.778;2023-05-19T04:47:24;100620.03;;;18.05;56.69
46448;BME280;32145;50.390;30.778;2023-05-19T04:50:21;100618.94;;;18.06;56.79
46448;BME280;32145;50.390;30.778;2023-05-19T04:53:17;100619.72;;;18.07;56.82
46448;BME280;32145;50.390;30.778;2023-05-19T04:56:13;100623.91;;;18.09;56.86
46448;BME280;32145;50.390;30.778;2023-05-19T04:59:11;100626.88;;;18.08;57.01
46448;BME280;32145;50.390;30.778;2023-05-19T05:02:07;100624.16;;;18.08;57.08
46448;BME280;32145;50.390;30.778;2023-05-19T05:05:04;100629.91;;;18.06;57.34
46448;BME280;32145;50.390;30.778;2023-05-19T05:08:01;100638.13;;;18.06;57.43
46448;BME280;32145;50.390;30.778;2023-05-19T05:10:57;100632.63;;;18.06;57.66
46448;BME280;32145;50.390;30.778;2023-05-19T05:13:54;100637.03;;;18.07;57.62
46448;BME280;32145;50.390;30.778;2023-05-19T05:16:53;100636.53;;;18.10;57.67
46448;BME280;32145;50.390;30.778;2023-05-19T05:19:49;100635.44;;;18.11;57.46
46448;BME280;32145;50.390;30.778;2023-05-19T05:22:46;100637.66;;;18.14;57.56
46448;BME280;32145;50.390;30.778;2023-05-19T05:25:43;100635.19;;;18.18;57.51
46448;BME280;32145;50.390;30.778;2023-05-19T05:28:40;100642.63;;;18.23;57.55
46448;BME280;32145;50.390;30.778;2023-05-19T05:31:34;100648.13;;;18.28;57.36
46448;BME280;32145;50.390;30.778;2023-05-19T05:34:29;100651.75;;;18.34;57.23
46448;BME280;32145;50.390;30.778;2023-05-19T05:37:24;100645.47;;;18.38;56.98
46448;BME280;32145;50.390;30.778;2023-05-19T05:40:18;100658.13;;;18.45;56.70
46448;BME280;32145;50.390;30.778;2023-05-19T05:43:13;100654.56;;;18.49;56.57
46448;BME280;32145;50.390;30.778;2023-05-19T05:46:07;100655.66;;;18.53;56.48
46448;BME280;32145;50.390;30.778;2023-05-19T05:49:05;100656.78;;;18.58;56.31
46448;BME280;32145;50.390;30.778;2023-05-19T05:52:04;100659.56;;;18.63;56.23
46448;BME280;32145;50.390;30.778;2023-05-19T05:55:00;100656.84;;;18.68;56.16
46448;BME280;32145;50.390;30.778;2023-05-19T05:57:56;100658.78;;;18.73;55.80
46448;BME280;32145;50.390;30.778;2023-05-19T06:00:53;100668.13;;;18.77;55.72
46448;BME280;32145;50.390;30.778;2023-05-19T06:03:49;100665.94;;;18.84;55.53
46448;BME280;32145;50.390;30.778;2023-05-19T06:06:43;100667.06;;;18.88;55.21
46448;BME280;32145;50.390;30.778;2023-05-19T06:09:39;100669.81;;;18.93;55.09
46448;BME280;32145;50.390;30.778;2023-05-19T06:12:35;100673.94;;;18.96;54.93
46448;BME280;32145;50.390;30.778;2023-05-19T06:15:32;100671.47;;;19.00;54.64
46448;BME280;32145;50.390;30.778;2023-05-19T06:18:28;100680.81;;;19.04;54.63
46448;BME280;32145;50.390;30.778;2023-05-19T06:21:24;100678.13;;;19.09;54.59
46448;BME280;32145;50.390;30.778;2023-05-19T06:24:21;100678.13;;;19.14;54.32
46448;BME280;32145;50.390;30.778;2023-05-19T06:27:18;100678.44;;;19.23;54.07
46448;BME280;32145;50.390;30.778;2023-05-19T06:30:14;100670.50;;;19.32;53.72
46448;BME280;32145;50.390;30.778;2023-05-19T06:33:11;100674.88;;;19.43;53.50
46448;BME280;32145;50.390;30.778;2023-05-19T06:36:07;100676.81;;;19.58;53.17
46448;BME280;32145;50.390;30.778;2023-05-19T06:39:03;100674.34;;;19.73;52.78
46448;BME280;32145;50.390;30.778;2023-05-19T06:42:00;100669.91;;;19.92;52.64
46448;BME280;32145;50.390;30.778;2023-05-19T06:44:55;100681.16;;;20.17;52.30
46448;BME280;32145;50.390;30.778;2023-05-19T06:47:50;100681.41;;;20.31;51.61
46448;BME280;32145;50.390;30.778;2023-05-19T06:50:44;100679.75;;;20.40;51.21
46448;BME280;32145;50.390;30.778;2023-05-19T06:53:38;100687.41;;;20.54;50.67
46448;BME280;32145;50.390;30.778;2023-05-19T06:56:33;100688.19;;;20.65;50.33
46448;BME280;32145;50.390;30.778;2023-05-19T06:59:27;100688.38;;;20.79;50.19
46448;BME280;32145;50.390;30.778;2023-05-19T07:02:25;100688.63;;;20.88;49.64
46448;BME280;32145;50.390;30.778;2023-05-19T07:05:21;100695.50;;;21.01;49.53
46448;BME280;32145;50.390;30.778;2023-05-19T07:08:18;100688.84;;;21.02;49.08
46448;BME280;32145;50.390;30.778;2023-05-19T07:11:14;100686.06;;;21.07;48.78
46448;BME280;32145;50.390;30.778;2023-05-19T07:14:10;100692.41;;;21.07;48.64
46448;BME280;32145;50.390;30.778;2023-05-19T07:17:07;100694.84;;;21.14;48.13
46448;BME280;32145;50.390;30.778;2023-05-19T07:20:06;100704.41;;;21.27;48.00
46448;BME280;32145;50.390;30.778;2023-05-19T07:23:02;100704.31;;;21.43;47.75
46448;BME280;32145;50.390;30.778;2023-05-19T07:25:58;100703.63;;;21.61;47.37
46448;BME280;32145;50.390;30.778;2023-05-19T07:28:55;100709.50;;;21.89;46.93
46448;BME280;32145;50.390;30.778;2023-05-19T07:31:51;100701.44;;;22.23;45.94
46448;BME280;32145;50.390;30.778;2023-05-19T07:34:47;100701.91;;;22.30;44.99
46448;BME280;32145;50.390;30.778;2023-05-19T07:37:45;100706.97;;;22.47;44.86
46448;BME280;32145;50.390;30.778;2023-05-19T07:40:41;100696.25;;;22.70;44.31
46448;BME280;32145;50.390;30.778;2023-05-19T07:43:38;100691.41;;;23.00;43.80
46448;BME280;32145;50.390;30.778;2023-05-19T07:46:34;100698.44;;;23.12;42.82
46448;BME280;32145;50.390;30.778;2023-05-19T07:49:31;100694.16;;;23.00;42.95
46448;BME280;32145;50.390;30.778;2023-05-19T07:52:27;100701.19;;;22.92;42.96
46448;BME280;32145;50.390;30.778;2023-05-19T07:55:25;100695.22;;;22.85;42.35
46448;BME280;32145;50.390;30.778;2023-05-19T07:58:21;100709.31;;;22.84;42.84
46448;BME280;32145;50.390;30.778;2023-05-19T08:01:18;100697.69;;;22.87;43.25
46448;BME280;32145;50.390;30.778;2023-05-19T08:04:14;100698.19;;;22.89;42.82
46448;BME280;32145;50.390;30.778;2023-05-19T08:07:10;100703.66;;;22.94;42.94
46448;BME280;32145;50.390;30.778;2023-05-19T08:10:07;100700.38;;;22.92;42.69
46448;BME280;32145;50.390;30.778;2023-05-19T08:13:05;100700.81;;;22.99;42.80
46448;BME280;32145;50.390;30.778;2023-05-19T08:16:01;100700.91;;;23.13;42.42
46448;BME280;32145;50.390;30.778;2023-05-19T08:18:58;100701.56;;;23.24;41.79
46448;BME280;32145;50.390;30.778;2023-05-19T08:21:54;100694.84;;;23.30;41.38
46448;BME280;32145;50.390;30.778;2023-05-19T08:24:50;100699.88;;;23.48;41.11
46448;BME280;32145;50.390;30.778;2023-05-19T08:27:47;100686.91;;;23.62;40.53
46448;BME280;32145;50.390;30.778;2023-05-19T08:30:44;100699.75;;;23.72;40.18
46448;BME280;32145;50.390;30.778;2023-05-19T08:33:40;100708.75;;;23.64;39.31
46448;BME280;32145;50.390;30.778;2023-05-19T08:36:34;100700.63;;;23.53;40.04
46448;BME280;32145;50.390;30.778;2023-05-19T08:39:29;100700.28;;;23.55;40.54
46448;BME280;32145;50.390;30.778;2023-05-19T08:42:25;100703.19;;;23.64;40.14
46448;BME280;32145;50.390;30.778;2023-05-19T08:45:21;100697.94;;;23.81;40.23
46448;BME280;32145;50.390;30.778;2023-05-19T08:48:20;100702.56;;;24.00;38.99
46448;BME280;32145;50.390;30.778;2023-05-19T08:51:19;100699.31;;;23.98;39.29
46448;BME280;32145;50.390;30.778;2023-05-19T08:54:24;100694.38;;;23.95;39.59
46448;BME280;32145;50.390;30.778;2023-05-19T08:57:23;100700.44;;;23.97;39.43
46448;BME280;32145;50.390;30.778;2023-05-19T09:00:18;100695.41;;;23.99;39.69
46448;BME280;32145;50.390;30.778;2023-05-19T09:03:13;100694.66;;;23.93;39.38
46448;BME280;32145;50.390;30.778;2023-05-19T09:06:10;100707.03;;;23.82;39.72
46448;BME280;32145;50.390;30.778;2023-05-19T09:09:04;100705.50;;;23.76;40.20
46448;BME280;32145;50.390;30.778;2023-05-19T09:11:58;100710.66;;;23.83;40.49
46448;BME280;32145;50.390;30.778;2023-05-19T09:14:53;100707.31;;;23.66;40.56
46448;BME280;32145;50.390;30.778;2023-05-19T09:17:47;100708.53;;;23.60;40.80
46448;BME280;32145;50.390;30.778;2023-05-19T09:20:43;100706.16;;;23.53;40.95
46448;BME280;32145;50.390;30.778;2023-05-19T09:23:38;100706.44;;;23.52;41.00
46448;BME280;32145;50.390;30.778;2023-05-19T09:26:36;100703.75;;;23.47;40.96
46448;BME280;32145;50.390;30.778;2023-05-19T09:29:31;100701.38;;;23.40;40.73
46448;BME280;32145;50.390;30.778;2023-05-19T09:32:26;100699.25;;;23.51;40.63
46448;BME280;32145;50.390;30.778;2023-05-19T09:35:20;100694.47;;;23.56;40.33
46448;BME280;32145;50.390;30.778;2023-05-19T09:38:16;100697.41;;;23.46;40.25
46448;BME280;32145;50.390;30.778;2023-05-19T09:41:13;100703.84;;;23.41;40.89
46448;BME280;32145;50.390;30.778;2023-05-19T09:44:11;100695.88;;;23.54;41.24
46448;BME280;32145;50.390;30.778;2023-05-19T09:47:08;100678.38;;;23.59;41.12
46448;BME280;32145;50.390;30.778;2023-05-19T09:50:07;100697.16;;;23.62;40.20
46448;BME280;32145;50.390;30.778;2023-05-19T09:53:02;100698.03;;;23.90;39.82
46448;BME280;32145;50.390;30.778;2023-05-19T09:55:57;100690.41;;;24.01;39.57
46448;BME280;32145;50.390;30.778;2023-05-19T09:58:52;100703.00;;;24.07;39.70
46448;BME280;32145;50.390;30.778;2023-05-19T10:01:47;100695.97;;;24.15;39.87
46448;BME280;32145;50.390;30.778;2023-05-19T10:04:42;100680.91;;;24.36;40.10
46448;BME280;32145;50.390;30.778;2023-05-19T10:07:38;100701.41;;;24.35;39.36
46448;BME280;32145;50.390;30.778;2023-05-19T10:10:33;100691.53;;;24.14;39.66
46448;BME280;32145;50.390;30.778;2023-05-19T10:13:28;100689.00;;;24.18;40.42
46448;BME280;32145;50.390;30.778;2023-05-19T10:16:25;100696.00;;;24.29;39.63
46448;BME280;32145;50.390;30.778;2023-05-19T10:19:21;100702.94;;;24.27;40.20
46448;BME280;32145;50.390;30.778;2023-05-19T10:22:17;100686.97;;;24.38;39.45
46448;BME280;32145;50.390;30.778;2023-05-19T12:30:58;100679.63;;;23.66;42.66
46448;BME280;32145;50.390;30.778;2023-05-19T12:33:52;100683.41;;;23.90;42.12
46448;BME280;32145;50.390;30.778;2023-05-19T12:36:50;100683.63;;;24.07;41.94
46448;BME280;32145;50.390;30.778;2023-05-19T12:39:47;100676.38;;;24.26;41.44
46448;BME280;32145;50.390;30.778;2023-05-19T12:42:44;100677.31;;;24.35;41.36
46448;BME280;32145;50.390;30.778;2023-05-19T12:45:39;100681.59;;;24.55;41.06
46448;BME280;32145;50.390;30.778;2023-05-19T12:48:39;100682.41;;;24.70;40.30
46448;BME280;32145;50.390;30.778;2023-05-19T12:51:33;100670.91;;;24.91;39.32
46448;BME280;32145;50.390;30.778;2023-05-19T12:54:32;100678.72;;;24.89;38.72
46448;BME280;32145;50.390;30.778;2023-05-19T12:57:26;100667.63;;;24.89;39.03
46448;BME280;32145;50.390;30.778;2023-05-19T13:00:21;100665.22;;;24.96;39.54
46448;BME280;32145;50.390;30.778;2023-05-19T13:03:16;100672.31;;;25.02;39.77
46448;BME280;32145;50.390;30.778;2023-05-19T13:06:12;100666.78;;;25.02;39.75
46448;BME280;32145;50.390;30.778;2023-05-19T13:09:07;100662.41;;;24.87;40.34
46448;BME280;32145;50.390;30.778;2023-05-19T13:12:01;100653.34;;;24.81;40.39
46448;BME280;32145;50.390;30.778;2023-05-19T13:14:55;100659.19;;;24.94;40.84
46448;BME280;32145;50.390;30.778;2023-05-19T13:17:50;100659.63;;;24.87;40.59
46448;BME280;32145;50.390;30.778;2023-05-19T13:20:45;100660.66;;;24.77;40.51
46448;BME280;32145;50.390;30.778;2023-05-19T13:23:40;100657.47;;;24.70;40.78
46448;BME280;32145;50.390;30.778;2023-05-19T13:26:37;100669.19;;;24.67;40.82
46448;BME280;32145;50.390;30.778;2023-05-19T13:29:33;100651.34;;;24.59;41.09
46448;BME280;32145;50.390;30.778;2023-05-19T13:32:29;100661.06;;;24.56;40.40
46448;BME280;32145;50.390;30.778;2023-05-19T13:35:26;100660.78;;;24.44;40.70
46448;BME280;32145;50.390;30.778;2023-05-19T13:38:22;100656.56;;;24.46;40.69
46448;BME280;32145;50.390;30.778;2023-05-19T13:41:22;100656.38;;;24.43;41.41
46448;BME280;32145;50.390;30.778;2023-05-19T13:44:19;100655.03;;;24.40;41.84
46448;BME280;32145;50.390;30.778;2023-05-19T13:47:15;100661.09;;;24.28;41.89
46448;BME280;32145;50.390;30.778;2023-05-19T13:50:12;100655.16;;;24.21;42.51
46448;BME280;32145;50.390;30.778;2023-05-19T13:53:08;100655.25;;;24.16;42.43
46448;BME280;32145;50.390;30.778;2023-05-19T13:56:05;100654.47;;;24.10;42.98
46448;BME280;32145;50.390;30.778;2023-05-19T13:59:02;100661.47;;;24.07;42.78
46448;BME280;32145;50.390;30.778;2023-05-19T14:01:58;100655.41;;;24.05;43.43
46448;BME280;32145;50.390;30.778;2023-05-19T14:04:54;100653.88;;;23.99;44.04
46448;BME280;32145;50.390;30.778;2023-05-19T14:07:51;100646.28;;;23.91;44.76
46448;BME280;32145;50.390;30.778;2023-05-19T14:10:49;100656.13;;;23.97;45.11
46448;BME280;32145;50.390;30.778;2023-05-19T14:13:46;100671.00;;;24.01;44.94
46448;BME280;32145;50.390;30.778;2023-05-19T14:16:44;100660.41;;;23.89;45.13
46448;BME280;32145;50.390;30.778;2023-05-19T14:19:40;100662.16;;;23.85;45.66
46448;BME280;32145;50.390;30.778;2023-05-19T14:22:34;100662.75;;;23.82;45.69
46448;BME280;32145;50.390;30.778;2023-05-19T14:25:29;100662.44;;;23.84;46.03
46448;BME280;32145;50.390;30.778;2023-05-19T14:28:23;100662.56;;;23.78;46.75
46448;BME280;32145;50.390;30.778;2023-05-19T14:31:19;100657.53;;;23.80;46.73
46448;BME280;32145;50.390;30.778;2023-05-19T14:34:17;100665.03;;;23.80;47.13
46448;BME280;32145;50.390;30.778;2023-05-19T14:37:11;100663.69;;;23.77;47.22
46448;BME280;32145;50.390;30.778;2023-05-19T14:40:07;100663.16;;;23.75;47.42
46448;BME280;32145;50.390;30.778;2023-05-19T14:43:01;100664.19;;;23.79;47.01
46448;BME280;32145;50.390;30.778;2023-05-19T14:45:55;100661.41;;;23.79;46.94
46448;BME280;32145;50.390;30.778;2023-05-19T14:48:49;100664.56;;;23.59;46.61
46448;BME280;32145;50.390;30.778;2023-05-19T14:51:45;100668.69;;;23.42;47.03
46448;BME280;32145;50.390;30.778;2023-05-19T14:54:41;100659.38;;;23.38;47.29
46448;BME280;32145;50.390;30.778;2023-05-19T14:57:36;100654.69;;;23.33;46.74
46448;BME280;32145;50.390;30.778;2023-05-19T15:00:30;100661.06;;;23.34;46.79
46448;BME280;32145;50.390;30.778;2023-05-19T15:03:24;100660.00;;;23.29;47.10
46448;BME280;32145;50.390;30.778;2023-05-19T15:06:19;100655.59;;;23.28;47.26
46448;BME280;32145;50.390;30.778;2023-05-19T15:09:14;100647.81;;;23.30;47.42
46448;BME280;32145;50.390;30.778;2023-05-19T15:12:10;100645.94;;;23.45;47.51
46448;BME280;32145;50.390;30.778;2023-05-19T15:15:08;100658.44;;;23.42;47.62
46448;BME280;32145;50.390;30.778;2023-05-19T15:18:04;100649.25;;;23.47;47.72
46448;BME280;32145;50.390;30.778;2023-05-19T15:21:00;100653.94;;;23.47;47.81
46448;BME280;32145;50.390;30.778;2023-05-19T15:23:56;100654.63;;;23.58;47.38
46448;BME280;32145;50.390;30.778;2023-05-19T15:26:54;100662.13;;;23.71;46.73
46448;BME280;32145;50.390;30.778;2023-05-19T15:29:49;100655.72;;;23.90;46.30
46448;BME280;32145;50.390;30.778;2023-05-19T15:32:43;100651.53;;;24.06;45.46
46448;BME280;32145;50.390;30.778;2023-05-19T15:35:37;100655.53;;;24.14;45.12
46448;BME280;32145;50.390;30.778;2023-05-19T15:38:34;100656.44;;;24.10;45.18
46448;BME280;32145;50.390;30.778;2023-05-19T15:41:30;100656.97;;;24.12;45.38
46448;BME280;32145;50.390;30.778;2023-05-19T15:44:28;100666.31;;;24.30;45.00
46448;BME280;32145;50.390;30.778;2023-05-19T15:47:24;100666.63;;;24.28;45.03
46448;BME280;32145;50.390;30.778;2023-05-19T15:50:20;100662.75;;;24.29;45.48
46448;BME280;32145;50.390;30.778;2023-05-19T15:53:17;100660.06;;;24.38;45.20
46448;BME280;32145;50.390;30.778;2023-05-19T15:56:11;100666.63;;;24.28;45.33
46448;BME280;32145;50.390;30.778;2023-05-19T15:59:05;100660.38;;;24.37;44.71
46448;BME280;32145;50.390;30.778;2023-05-19T16:02:01;100672.06;;;24.48;44.87
46448;BME280;32145;50.390;30.778;2023-05-19T16:04:55;100669.47;;;24.65;44.50
46448;BME280;32145;50.390;30.778;2023-05-19T16:07:49;100681.91;;;24.68;44.22
46448;BME280;32145;50.390;30.778;2023-05-19T16:10:44;100675.75;;;24.29;44.16
46448;BME280;32145;50.390;30.778;2023-05-19T16:13:40;100675.78;;;23.81;45.29
46448;BME280;32145;50.390;30.778;2023-05-19T16:16:34;100680.44;;;23.34;46.11
46448;BME280;32145;50.390;30.778;2023-05-19T16:19:30;100692.53;;;22.80;47.40
46448;BME280;32145;50.390;30.778;2023-05-19T16:22:25;100688.81;;;22.41;48.55
46448;BME280;32145;50.390;30.778;2023-05-19T16:25:21;100695.69;;;22.19;49.55
46448;BME280;32145;50.390;30.778;2023-05-19T16:28:17;100705.31;;;21.92;50.39
46448;BME280;32145;50.390;30.778;2023-05-19T16:31:12;100704.91;;;21.74;51.10
46448;BME280;32145;50.390;30.778;2023-05-19T16:34:06;100698.69;;;21.58;51.60
46448;BME280;32145;50.390;30.778;2023-05-19T16:37:02;100716.19;;;21.38;51.78
46448;BME280;32145;50.390;30.778;2023-05-19T16:39:56;100721.34;;;21.15;52.01
46448;BME280;32145;50.390;30.778;2023-05-19T16:42:52;100719.22;;;20.96;52.63
46448;BME280;32145;50.390;30.778;2023-05-19T16:45:49;100724.22;;;20.84;53.20
46448;BME280;32145;50.390;30.778;2023-05-19T16:48:45;100728.91;;;20.73;53.37
46448;BME280;32145;50.390;30.778;2023-05-19T16:51:41;100725.94;;;20.64;53.61
46448;BME280;32145;50.390;30.778;2023-05-19T16:54:39;100736.41;;;20.57;53.97
46448;BME280;32145;50.390;30.778;2023-05-19T16:57:35;100727.91;;;20.48;54.19
46448;BME280;32145;50.390;30.778;2023-05-19T17:00:32;100729.84;;;20.42;54.30
46448;BME280;32145;50.390;30.778;2023-05-19T17:03:28;100740.03;;;20.37;54.63
46448;BME280;32145;50.390;30.778;2023-05-19T17:06:24;100730.97;;;20.31;54.72
46448;BME280;32145;50.390;30.778;2023-05-19T17:09:21;100731.53;;;20.22;55.31
46448;BME280;32145;50.390;30.778;2023-05-19T17:12:18;100734.84;;;20.14;55.88
46448;BME280;32145;50.390;30.778;2023-05-19T17:15:13;100739.00;;;20.06;55.91